sensor_id;sensor_type;location;lat;lon;timestamp;temperature;humidity
25550;DHT22;13444;50.562;7.262;2023-06-05T00:00:31;14.00;99.90
25550;DHT22;13444;50.562;7.262;2023-06-05T00:02:56;13.90;99.90
25550;DHT22;13444;50.562;7.262;2023-06-05T00:05:22;13.90;99.90
25550;DHT22;13444;50.562;7.262;2023-06-05T00:07:51;14.00;99.90
25550;DHT22;13444;50.562;7.262;2023-06-05T00:10:17;14.00;99.90
25550;DHT22;13444;50.562;7.262;2023-06-05T00:12:42;13.90;99.90
25550;DHT22;13444;50.562;7.262;2023-06-05T00:15:08;13.80;99.90
25550;DHT22;13444;50.562;7.262;2023-06-05T00:17:34;13.80;99.90
25550;DHT22;13444;50.562;7.262;2023-06-05T00:19:59;13.70;99.90
25550;DHT22;13444;50.562;7.262;2023-06-05T00:22:26;13.70;99.90
25550;DHT22;13444;50.562;7.262;2023-06-05T00:24:56;13.70;99.90
25550;DHT22;13444;50.562;7.262;2023-06-05T00:27:22;13.60;99.90
25550;DHT22;13444;50.562;7.262;2023-06-05T00:29:49;13.60;99.90
25550;DHT22;13444;50.562;7.262;2023-06-05T00:32:14;13.60;99.90
25550;DHT22;13444;50.562;7.262;2023-06-05T00:34:40;13.50;99.90
25550;DHT22;13444;50.562;7.262;2023-06-05T00:37:05;13.40;99.90
25550;DHT22;13444;50.562;7.262;2023-06-05T00:39:32;13.30;99.90
25550;DHT22;13444;50.562;7.262;2023-06-05T00:41:58;13.20;99.90
25550;DHT22;13444;50.562;7.262;2023-06-05T00:44:23;13.10;99.90
25550;DHT22;13444;50.562;7.262;2023-06-05T00:46:50;13.10;99.90
25550;DHT22;13444;50.562;7.262;2023-06-05T00:49:17;13.00;99.90
25550;DHT22;13444;50.562;7.262;2023-06-05T00:51:44;13.10;99.90
25550;DHT22;13444;50.562;7.262;2023-06-05T00:54:10;13.00;99.90
25550;DHT22;13444;50.562;7.262;2023-06-05T00:56:37;12.90;99.90
25550;DHT22;13444;50.562;7.262;2023-06-05T00:59:05;13.00;99.90
25550;DHT22;13444;50.562;7.262;2023-06-05T01:01:31;13.00;99.90
25550;DHT22;13444;50.562;7.262;2023-06-05T01:03:57;13.00;99.90
25550;DHT22;13444;50.562;7.262;2023-06-05T01:06:27;12.90;99.90
25550;DHT22;13444;50.562;7.262;2023-06-05T01:08:54;12.90;99.90
25550;DHT22;13444;50.562;7.262;2023-06-05T01:14:15;12.80;99.90
25550;DHT22;13444;50.562;7.262;2023-06-05T01:16:51;12.80;99.90
25550;DHT22;13444;50.562;7.262;2023-06-05T01:19:22;12.80;99.90
25550;DHT22;13444;50.562;7.262;2023-06-05T01:21:51;12.90;99.90
25550;DHT22;13444;50.562;7.262;2023-06-05T01:24:17;12.90;99.90
25550;DHT22;13444;50.562;7.262;2023-06-05T01:27:32;12.80;99.90
25550;DHT22;13444;50.562;7.262;2023-06-05T01:35:19;12.90;99.90
25550;DHT22;13444;50.562;7.262;2023-06-05T01:37:48;12.90;99.90
25550;DHT22;13444;50.562;7.262;2023-06-05T01:40:16;12.90;99.90
25550;DHT22;13444;50.562;7.262;2023-06-05T01:42:42;12.90;99.90
25550;DHT22;13444;50.562;7.262;2023-06-05T01:45:10;12.90;99.90
25550;DHT22;13444;50.562;7.262;2023-06-05T01:47:36;12.80;99.90
25550;DHT22;13444;50.562;7.262;2023-06-05T01:50:02;12.80;99.90
25550;DHT22;13444;50.562;7.262;2023-06-05T01:52:28;12.70;99.90
25550;DHT22;13444;50.562;7.262;2023-06-05T01:54:53;12.70;99.90
25550;DHT22;13444;50.562;7.262;2023-06-05T01:57:20;12.60;99.90
25550;DHT22;13444;50.562;7.262;2023-06-05T01:59:46;12.60;99.90
25550;DHT22;13444;50.562;7.262;2023-06-05T02:02:12;12.60;99.90
25550;DHT22;13444;50.562;7.262;2023-06-05T02:04:39;12.60;99.90
25550;DHT22;13444;50.562;7.262;2023-06-05T02:07:05;12.60;99.90
25550;DHT22;13444;50.562;7.262;2023-06-05T02:09:32;12.50;99.90
25550;DHT22;13444;50.562;7.262;2023-06-05T02:11:58;12.50;99.90
25550;DHT22;13444;50.562;7.262;2023-06-05T02:14:32;12.40;99.90
25550;DHT22;13444;50.562;7.262;2023-06-05T02:17:01;12.40;99.90
25550;DHT22;13444;50.562;7.262;2023-06-05T02:19:30;12.40;99.90
25550;DHT22;13444;50.562;7.262;2023-06-05T02:21:56;12.30;99.90
25550;DHT22;13444;50.562;7.262;2023-06-05T02:24:21;12.20;99.90
25550;DHT22;13444;50.562;7.262;2023-06-05T02:26:48;12.10;99.90
25550;DHT22;13444;50.562;7.262;2023-06-05T02:29:13;12.10;99.90
25550;DHT22;13444;50.562;7.262;2023-06-05T02:31:39;12.10;99.90
25550;DHT22;13444;50.562;7.262;2023-06-05T02:34:04;12.00;99.90
25550;DHT22;13444;50.562;7.262;2023-06-05T02:36:30;11.90;99.90
25550;DHT22;13444;50.562;7.262;2023-06-05T02:38:59;11.90;99.90
25550;DHT22;13444;50.562;7.262;2023-06-05T02:41:25;11.90;99.90
25550;DHT22;13444;50.562;7.262;2023-06-05T02:43:52;11.90;99.90
25550;DHT22;13444;50.562;7.262;2023-06-05T02:46:18;11.90;99.90
25550;DHT22;13444;50.562;7.262;2023-06-05T02:48:44;11.90;99.90
25550;DHT22;13444;50.562;7.262;2023-06-05T02:51:10;11.90;99.90
25550;DHT22;13444;50.562;7.262;2023-06-05T02:53:36;11.90;99.90
25550;DHT22;13444;50.562;7.262;2023-06-05T02:56:03;11.80;99.90
25550;DHT22;13444;50.562;7.262;2023-06-05T02:58:28;11.80;99.90
25550;DHT22;13444;50.562;7.262;2023-06-05T03:00:55;11.80;99.90
25550;DHT22;13444;50.562;7.262;2023-06-05T03:03:22;11.70;99.90
25550;DHT22;13444;50.562;7.262;2023-06-05T03:05:56;11.60;99.90
25550;DHT22;13444;50.562;7.262;2023-06-05T03:08:21;11.60;99.90
25550;DHT22;13444;50.562;7.262;2023-06-05T03:10:47;11.60;99.90
25550;DHT22;13444;50.562;7.262;2023-06-05T03:13:12;11.50;99.90
25550;DHT22;13444;50.562;7.262;2023-06-05T03:15:38;11.50;99.90
25550;DHT22;13444;50.562;7.262;2023-06-05T03:18:04;11.50;99.90
25550;DHT22;13444;50.562;7.262;2023-06-05T03:20:30;11.50;99.90
25550;DHT22;13444;50.562;7.262;2023-06-05T03:22:56;11.40;99.90
25550;DHT22;13444;50.562;7.262;2023-06-05T03:25:22;11.40;99.90
25550;DHT22;13444;50.562;7.262;2023-06-05T03:27:48;11.30;99.90
25550;DHT22;13444;50.562;7.262;2023-06-05T03:30:14;11.30;99.90
25550;DHT22;13444;50.562;7.262;2023-06-05T03:32:41;11.30;99.90
25550;DHT22;13444;50.562;7.262;2023-06-05T03:35:07;11.30;99.90
25550;DHT22;13444;50.562;7.262;2023-06-05T03:37:34;11.30;99.90
25550;DHT22;13444;50.562;7.262;2023-06-05T03:39:59;11.20;99.90
25550;DHT22;13444;50.562;7.262;2023-06-05T03:42:25;11.20;99.90
25550;DHT22;13444;50.562;7.262;2023-06-05T03:44:50;11.10;99.90
25550;DHT22;13444;50.562;7.262;2023-06-05T03:47:16;11.10;99.90
25550;DHT22;13444;50.562;7.262;2023-06-05T03:49:41;11.10;99.90
25550;DHT22;13444;50.562;7.262;2023-06-05T03:52:13;11.10;99.90
25550;DHT22;13444;50.562;7.262;2023-06-05T03:54:40;11.10;99.90
25550;DHT22;13444;50.562;7.262;2023-06-05T03:57:06;11.10;99.90
25550;DHT22;13444;50.562;7.262;2023-06-05T03:59:38;11.00;99.90
25550;DHT22;13444;50.562;7.262;2023-06-05T04:02:03;11.00;99.90
25550;DHT22;13444;50.562;7.262;2023-06-05T04:04:30;11.00;99.90
25550;DHT22;13444;50.562;7.262;2023-06-05T04:06:55;11.00;99.90
25550;DHT22;13444;50.562;7.262;2023-06-05T04:09:21;11.00;99.90
25550;DHT22;13444;50.562;7.262;2023-06-05T04:11:46;11.00;99.90
25550;DHT22;13444;50.562;7.262;2023-06-05T04:14:13;11.00;99.90
25550;DHT22;13444;50.562;7.262;2023-06-05T04:16:40;11.00;99.90
25550;DHT22;13444;50.562;7.262;2023-06-05T04:19:09;11.00;99.90
25550;DHT22;13444;50.562;7.262;2023-06-05T04:21:36;10.90;99.90
25550;DHT22;13444;50.562;7.262;2023-06-05T04:24:04;10.90;99.90
25550;DHT22;13444;50.562;7.262;2023-06-05T04:26:33;10.90;99.90
25550;DHT22;13444;50.562;7.262;2023-06-05T04:28:59;10.80;99.90
25550;DHT22;13444;50.562;7.262;2023-06-05T04:31:24;10.80;99.90
25550;DHT22;13444;50.562;7.262;2023-06-05T04:33:50;10.80;99.90
25550;DHT22;13444;50.562;7.262;2023-06-05T04:36:16;10.80;99.90
25550;DHT22;13444;50.562;7.262;2023-06-05T04:38:43;10.80;99.90
25550;DHT22;13444;50.562;7.262;2023-06-05T04:41:10;10.90;99.90
25550;DHT22;13444;50.562;7.262;2023-06-05T04:43:36;10.90;99.90
25550;DHT22;13444;50.562;7.262;2023-06-05T04:46:01;11.00;99.90
25550;DHT22;13444;50.562;7.262;2023-06-05T04:48:28;11.00;99.90
25550;DHT22;13444;50.562;7.262;2023-06-05T04:50:54;11.10;99.90
25550;DHT22;13444;50.562;7.262;2023-06-05T04:53:21;11.20;99.90
25550;DHT22;13444;50.562;7.262;2023-06-05T04:55:47;11.40;99.90
25550;DHT22;13444;50.562;7.262;2023-06-05T04:58:14;11.50;99.90
25550;DHT22;13444;50.562;7.262;2023-06-05T05:00:41;11.60;99.90
25550;DHT22;13444;50.562;7.262;2023-06-05T05:03:09;11.60;99.90
25550;DHT22;13444;50.562;7.262;2023-06-05T05:05:37;11.70;99.90
25550;DHT22;13444;50.562;7.262;2023-06-05T05:08:02;11.70;99.90
25550;DHT22;13444;50.562;7.262;2023-06-05T05:10:28;11.70;99.90
25550;DHT22;13444;50.562;7.262;2023-06-05T05:12:53;11.80;99.90
25550;DHT22;13444;50.562;7.262;2023-06-05T05:15:19;11.80;99.90
25550;DHT22;13444;50.562;7.262;2023-06-05T05:17:45;11.90;99.90
25550;DHT22;13444;50.562;7.262;2023-06-05T05:20:11;12.00;99.90
25550;DHT22;13444;50.562;7.262;2023-06-05T05:22:37;12.00;99.90
25550;DHT22;13444;50.562;7.262;2023-06-05T05:25:03;12.00;99.90
25550;DHT22;13444;50.562;7.262;2023-06-05T05:27:29;12.10;99.90
25550;DHT22;13444;50.562;7.262;2023-06-05T05:29:54;12.20;99.90
25550;DHT22;13444;50.562;7.262;2023-06-05T05:32:20;12.30;99.90
25550;DHT22;13444;50.562;7.262;2023-06-05T05:34:46;12.40;99.90
25550;DHT22;13444;50.562;7.262;2023-06-05T05:37:11;12.50;99.90
25550;DHT22;13444;50.562;7.262;2023-06-05T05:39:37;12.60;99.90
25550;DHT22;13444;50.562;7.262;2023-06-05T05:42:03;12.70;99.90
25550;DHT22;13444;50.562;7.262;2023-06-05T05:44:28;12.90;99.90
25550;DHT22;13444;50.562;7.262;2023-06-05T05:46:54;13.00;99.90
25550;DHT22;13444;50.562;7.262;2023-06-05T05:49:20;13.10;99.90
25550;DHT22;13444;50.562;7.262;2023-06-05T05:51:45;13.20;99.90
25550;DHT22;13444;50.562;7.262;2023-06-05T05:54:11;13.30;99.90
25550;DHT22;13444;50.562;7.262;2023-06-05T05:56:36;13.40;99.90
25550;DHT22;13444;50.562;7.262;2023-06-05T05:59:03;13.40;99.90
25550;DHT22;13444;50.562;7.262;2023-06-05T06:01:28;13.40;99.90
25550;DHT22;13444;50.562;7.262;2023-06-05T06:03:54;13.40;99.90
25550;DHT22;13444;50.562;7.262;2023-06-05T06:06:20;13.50;99.90
25550;DHT22;13444;50.562;7.262;2023-06-05T06:08:46;13.60;99.90
25550;DHT22;13444;50.562;7.262;2023-06-05T06:11:12;13.80;99.90
25550;DHT22;13444;50.562;7.262;2023-06-05T06:13:37;13.90;99.90
25550;DHT22;13444;50.562;7.262;2023-06-05T06:16:03;14.00;99.90
25550;DHT22;13444;50.562;7.262;2023-06-05T06:18:28;14.10;99.90
25550;DHT22;13444;50.562;7.262;2023-06-05T06:20:54;14.30;99.90
25550;DHT22;13444;50.562;7.262;2023-06-05T06:23:20;14.50;99.90
25550;DHT22;13444;50.562;7.262;2023-06-05T06:25:46;14.70;99.90
25550;DHT22;13444;50.562;7.262;2023-06-05T06:28:12;14.80;99.90
25550;DHT22;13444;50.562;7.262;2023-06-05T06:30:37;15.00;99.90
25550;DHT22;13444;50.562;7.262;2023-06-05T06:33:03;15.10;99.90
25550;DHT22;13444;50.562;7.262;2023-06-05T06:35:30;15.20;99.90
25550;DHT22;13444;50.562;7.262;2023-06-05T06:37:57;15.40;99.90
25550;DHT22;13444;50.562;7.262;2023-06-05T06:40:23;15.50;99.90
25550;DHT22;13444;50.562;7.262;2023-06-05T06:42:49;15.60;99.90
25550;DHT22;13444;50.562;7.262;2023-06-05T06:45:16;15.80;99.90
25550;DHT22;13444;50.562;7.262;2023-06-05T06:47:43;15.90;99.90
25550;DHT22;13444;50.562;7.262;2023-06-05T06:50:09;16.10;99.90
25550;DHT22;13444;50.562;7.262;2023-06-05T06:52:35;16.30;99.90
25550;DHT22;13444;50.562;7.262;2023-06-05T06:55:01;16.40;99.90
25550;DHT22;13444;50.562;7.262;2023-06-05T06:57:26;16.50;99.90
25550;DHT22;13444;50.562;7.262;2023-06-05T06:59:52;16.70;99.90
25550;DHT22;13444;50.562;7.262;2023-06-05T07:02:20;16.80;99.90
25550;DHT22;13444;50.562;7.262;2023-06-05T07:04:46;16.90;99.90
25550;DHT22;13444;50.562;7.262;2023-06-05T07:07:14;17.00;99.90
25550;DHT22;13444;50.562;7.262;2023-06-05T07:09:41;17.10;99.90
25550;DHT22;13444;50.562;7.262;2023-06-05T07:12:12;17.10;99.90
25550;DHT22;13444;50.562;7.262;2023-06-05T07:14:38;17.30;99.90
25550;DHT22;13444;50.562;7.262;2023-06-05T07:17:04;17.40;99.90
25550;DHT22;13444;50.562;7.262;2023-06-05T07:19:31;17.50;99.90
25550;DHT22;13444;50.562;7.262;2023-06-05T07:21:58;17.60;99.90
25550;DHT22;13444;50.562;7.262;2023-06-05T07:24:25;17.70;99.90
25550;DHT22;13444;50.562;7.262;2023-06-05T07:26:53;17.90;99.90
25550;DHT22;13444;50.562;7.262;2023-06-05T07:29:19;18.00;99.90
25550;DHT22;13444;50.562;7.262;2023-06-05T07:31:46;18.10;99.90
25550;DHT22;13444;50.562;7.262;2023-06-05T07:34:11;18.30;99.90
25550;DHT22;13444;50.562;7.262;2023-06-05T07:36:38;18.40;99.90
25550;DHT22;13444;50.562;7.262;2023-06-05T07:39:04;18.50;99.90
25550;DHT22;13444;50.562;7.262;2023-06-05T07:41:30;18.70;99.90
25550;DHT22;13444;50.562;7.262;2023-06-05T07:43:55;18.80;99.90
25550;DHT22;13444;50.562;7.262;2023-06-05T07:46:21;18.90;99.90
25550;DHT22;13444;50.562;7.262;2023-06-05T07:48:47;19.10;99.90
25550;DHT22;13444;50.562;7.262;2023-06-05T07:51:12;19.20;99.90
25550;DHT22;13444;50.562;7.262;2023-06-05T07:53:38;19.30;99.90
25550;DHT22;13444;50.562;7.262;2023-06-05T07:56:03;19.60;99.90
25550;DHT22;13444;50.562;7.262;2023-06-05T07:58:29;19.70;99.90
25550;DHT22;13444;50.562;7.262;2023-06-05T08:00:54;19.80;99.90
25550;DHT22;13444;50.562;7.262;2023-06-05T08:03:22;19.90;99.90
25550;DHT22;13444;50.562;7.262;2023-06-05T08:05:51;20.20;99.90
25550;DHT22;13444;50.562;7.262;2023-06-05T08:08:17;20.20;99.90
25550;DHT22;13444;50.562;7.262;2023-06-05T08:10:43;20.30;99.90
25550;DHT22;13444;50.562;7.262;2023-06-05T08:13:09;20.40;99.90
25550;DHT22;13444;50.562;7.262;2023-06-05T08:15:35;20.50;99.90
25550;DHT22;13444;50.562;7.262;2023-06-05T08:18:01;20.80;99.90
25550;DHT22;13444;50.562;7.262;2023-06-05T08:20:27;21.10;99.90
25550;DHT22;13444;50.562;7.262;2023-06-05T08:22:54;21.40;99.90
25550;DHT22;13444;50.562;7.262;2023-06-05T08:25:25;21.70;99.90
25550;DHT22;13444;50.562;7.262;2023-06-05T08:27:52;22.00;99.90
25550;DHT22;13444;50.562;7.262;2023-06-05T08:30:18;22.30;99.90
25550;DHT22;13444;50.562;7.262;2023-06-05T08:32:43;22.30;99.90
25550;DHT22;13444;50.562;7.262;2023-06-05T08:35:10;22.40;99.90
25550;DHT22;13444;50.562;7.262;2023-06-05T08:37:39;22.60;99.90
25550;DHT22;13444;50.562;7.262;2023-06-05T08:40:05;22.90;99.90
25550;DHT22;13444;50.562;7.262;2023-06-05T08:42:33;23.20;99.90
25550;DHT22;13444;50.562;7.262;2023-06-05T08:44:58;23.20;99.90
25550;DHT22;13444;50.562;7.262;2023-06-05T08:47:28;23.50;99.90
25550;DHT22;13444;50.562;7.262;2023-06-05T08:49:54;23.80;99.90
25550;DHT22;13444;50.562;7.262;2023-06-05T08:52:22;24.10;99.90
25550;DHT22;13444;50.562;7.262;2023-06-05T08:54:49;24.20;99.90
25550;DHT22;13444;50.562;7.262;2023-06-05T08:57:15;24.50;99.90
25550;DHT22;13444;50.562;7.262;2023-06-05T08:59:41;24.80;99.90
25550;DHT22;13444;50.562;7.262;2023-06-05T09:02:07;24.90;99.90
25550;DHT22;13444;50.562;7.262;2023-06-05T09:04:34;25.10;99.90
25550;DHT22;13444;50.562;7.262;2023-06-05T09:07:00;25.30;99.90
25550;DHT22;13444;50.562;7.262;2023-06-05T09:09:26;25.30;99.90
25550;DHT22;13444;50.562;7.262;2023-06-05T09:12:06;25.60;99.90
25550;DHT22;13444;50.562;7.262;2023-06-05T09:14:32;25.90;99.90
25550;DHT22;13444;50.562;7.262;2023-06-05T09:17:02;26.30;99.90
25550;DHT22;13444;50.562;7.262;2023-06-05T09:19:38;26.60;99.90
25550;DHT22;13444;50.562;7.262;2023-06-05T09:22:06;26.90;99.90
25550;DHT22;13444;50.562;7.262;2023-06-05T09:24:32;27.00;99.90
25550;DHT22;13444;50.562;7.262;2023-06-05T09:27:00;27.30;99.90
25550;DHT22;13444;50.562;7.262;2023-06-05T09:31:55;27.40;99.90
25550;DHT22;13444;50.562;7.262;2023-06-05T09:36:50;27.40;99.90
25550;DHT22;13444;50.562;7.262;2023-06-05T09:39:18;27.50;99.90
25550;DHT22;13444;50.562;7.262;2023-06-05T09:41:48;27.70;99.90
25550;DHT22;13444;50.562;7.262;2023-06-05T09:44:15;27.80;99.90
25550;DHT22;13444;50.562;7.262;2023-06-05T09:49:17;28.20;99.90
25550;DHT22;13444;50.562;7.262;2023-06-05T09:51:43;28.50;99.90
25550;DHT22;13444;50.562;7.262;2023-06-05T09:54:10;28.40;98.80
25550;DHT22;13444;50.562;7.262;2023-06-05T09:56:36;28.60;99.30
25550;DHT22;13444;50.562;7.262;2023-06-05T09:59:06;28.80;98.80
25550;DHT22;13444;50.562;7.262;2023-06-05T10:01:35;28.70;98.10
25550;DHT22;13444;50.562;7.262;2023-06-05T10:04:09;28.50;97.60
25550;DHT22;13444;50.562;7.262;2023-06-05T10:06:36;28.70;97.90
25550;DHT22;13444;50.562;7.262;2023-06-05T10:09:02;29.10;97.90
25550;DHT22;13444;50.562;7.262;2023-06-05T10:11:29;29.40;96.40
25550;DHT22;13444;50.562;7.262;2023-06-05T10:13:55;29.60;95.90
25550;DHT22;13444;50.562;7.262;2023-06-05T10:16:25;29.70;95.00
25550;DHT22;13444;50.562;7.262;2023-06-05T10:18:51;29.80;95.00
25550;DHT22;13444;50.562;7.262;2023-06-05T10:21:17;29.90;94.20
25550;DHT22;13444;50.562;7.262;2023-06-05T10:23:47;30.00;93.50
25550;DHT22;13444;50.562;7.262;2023-06-05T10:32:03;30.80;92.20
25550;DHT22;13444;50.562;7.262;2023-06-05T10:35:00;31.10;91.60
25550;DHT22;13444;50.562;7.262;2023-06-05T10:37:41;31.30;90.80
25550;DHT22;13444;50.562;7.262;2023-06-05T10:40:09;31.60;90.60
25550;DHT22;13444;50.562;7.262;2023-06-05T10:42:36;31.70;88.90
25550;DHT22;13444;50.562;7.262;2023-06-05T10:45:02;31.50;85.40
25550;DHT22;13444;50.562;7.262;2023-06-05T10:52:44;31.50;84.00
25550;DHT22;13444;50.562;7.262;2023-06-05T10:55:11;31.60;84.50
25550;DHT22;13444;50.562;7.262;2023-06-05T11:00:33;31.70;79.00
25550;DHT22;13444;50.562;7.262;2023-06-05T11:03:00;31.40;80.50
25550;DHT22;13444;50.562;7.262;2023-06-05T11:05:26;31.50;83.10
25550;DHT22;13444;50.562;7.262;2023-06-05T11:08:10;31.80;80.80
25550;DHT22;13444;50.562;7.262;2023-06-05T11:11:05;32.30;78.90
25550;DHT22;13444;50.562;7.262;2023-06-05T11:13:53;32.50;78.90
25550;DHT22;13444;50.562;7.262;2023-06-05T11:16:30;32.70;78.10
25550;DHT22;13444;50.562;7.262;2023-06-05T11:22:09;33.00;74.40
25550;DHT22;13444;50.562;7.262;2023-06-05T11:24:37;32.60;72.70
25550;DHT22;13444;50.562;7.262;2023-06-05T11:27:04;32.40;71.90
25550;DHT22;13444;50.562;7.262;2023-06-05T11:29:31;32.30;71.70
25550;DHT22;13444;50.562;7.262;2023-06-05T11:31:57;32.40;71.70
25550;DHT22;13444;50.562;7.262;2023-06-05T11:34:23;32.40;73.10
25550;DHT22;13444;50.562;7.262;2023-06-05T11:36:48;32.90;73.00
25550;DHT22;13444;50.562;7.262;2023-06-05T11:39:14;33.30;70.70
25550;DHT22;13444;50.562;7.262;2023-06-05T11:41:44;33.50;69.60
25550;DHT22;13444;50.562;7.262;2023-06-05T11:44:11;33.80;70.00
25550;DHT22;13444;50.562;7.262;2023-06-05T11:46:43;34.00;69.70
25550;DHT22;13444;50.562;7.262;2023-06-05T11:49:26;34.20;68.20
25550;DHT22;13444;50.562;7.262;2023-06-05T11:51:53;34.40;66.60
25550;DHT22;13444;50.562;7.262;2023-06-05T11:54:31;34.40;63.80
25550;DHT22;13444;50.562;7.262;2023-06-05T11:57:04;34.20;64.90
25550;DHT22;13444;50.562;7.262;2023-06-05T11:59:37;34.10;65.90
25550;DHT22;13444;50.562;7.262;2023-06-05T12:02:04;34.00;64.90
25550;DHT22;13444;50.562;7.262;2023-06-05T12:04:31;33.90;65.40
25550;DHT22;13444;50.562;7.262;2023-06-05T12:06:57;34.10;64.60
25550;DHT22;13444;50.562;7.262;2023-06-05T12:09:25;34.40;64.90
25550;DHT22;13444;50.562;7.262;2023-06-05T12:11:51;34.70;64.40
25550;DHT22;13444;50.562;7.262;2023-06-05T12:14:30;34.40;61.70
25550;DHT22;13444;50.562;7.262;2023-06-05T12:16:57;34.30;62.30
25550;DHT22;13444;50.562;7.262;2023-06-05T12:19:22;33.50;60.70
25550;DHT22;13444;50.562;7.262;2023-06-05T12:21:48;33.60;63.60
25550;DHT22;13444;50.562;7.262;2023-06-05T12:24:25;34.00;63.70
25550;DHT22;13444;50.562;7.262;2023-06-05T12:26:56;34.00;61.90
25550;DHT22;13444;50.562;7.262;2023-06-05T12:29:34;34.10;61.60
25550;DHT22;13444;50.562;7.262;2023-06-05T12:32:01;34.40;61.60
25550;DHT22;13444;50.562;7.262;2023-06-05T12:34:44;34.60;61.50
25550;DHT22;13444;50.562;7.262;2023-06-05T12:37:11;34.80;58.90
25550;DHT22;13444;50.562;7.262;2023-06-05T12:39:38;34.60;60.40
25550;DHT22;13444;50.562;7.262;2023-06-05T12:42:04;34.70;60.70
25550;DHT22;13444;50.562;7.262;2023-06-05T12:44:30;34.50;60.20
25550;DHT22;13444;50.562;7.262;2023-06-05T12:46:55;34.40;60.30
25550;DHT22;13444;50.562;7.262;2023-06-05T12:49:22;34.00;58.20
25550;DHT22;13444;50.562;7.262;2023-06-05T12:51:48;33.40;58.90
25550;DHT22;13444;50.562;7.262;2023-06-05T12:54:13;33.30;60.70
25550;DHT22;13444;50.562;7.262;2023-06-05T12:56:39;32.80;58.00
25550;DHT22;13444;50.562;7.262;2023-06-05T12:59:05;32.60;58.60
25550;DHT22;13444;50.562;7.262;2023-06-05T13:01:32;32.00;59.00
25550;DHT22;13444;50.562;7.262;2023-06-05T13:04:01;31.90;58.50
25550;DHT22;13444;50.562;7.262;2023-06-05T13:06:27;31.80;59.90
25550;DHT22;13444;50.562;7.262;2023-06-05T13:08:53;31.90;60.80
25550;DHT22;13444;50.562;7.262;2023-06-05T13:11:18;32.10;58.70
25550;DHT22;13444;50.562;7.262;2023-06-05T13:13:44;31.90;58.60
25550;DHT22;13444;50.562;7.262;2023-06-05T13:16:10;32.00;60.70
25550;DHT22;13444;50.562;7.262;2023-06-05T13:18:35;31.90;60.30
25550;DHT22;13444;50.562;7.262;2023-06-05T13:21:03;31.90;60.20
25550;DHT22;13444;50.562;7.262;2023-06-05T13:23:29;32.00;60.70
25550;DHT22;13444;50.562;7.262;2023-06-05T13:25:54;32.00;61.30
25550;DHT22;13444;50.562;7.262;2023-06-05T13:28:20;32.00;59.90
25550;DHT22;13444;50.562;7.262;2023-06-05T13:30:46;31.60;59.00
25550;DHT22;13444;50.562;7.262;2023-06-05T13:33:12;31.50;58.80
25550;DHT22;13444;50.562;7.262;2023-06-05T13:35:38;31.40;60.20
25550;DHT22;13444;50.562;7.262;2023-06-05T13:38:03;31.20;57.80
25550;DHT22;13444;50.562;7.262;2023-06-05T13:40:29;30.70;60.80
25550;DHT22;13444;50.562;7.262;2023-06-05T13:42:57;30.60;60.60
25550;DHT22;13444;50.562;7.262;2023-06-05T13:45:23;30.70;60.90
25550;DHT22;13444;50.562;7.262;2023-06-05T13:47:48;30.80;60.20
25550;DHT22;13444;50.562;7.262;2023-06-05T13:50:14;30.50;58.50
25550;DHT22;13444;50.562;7.262;2023-06-05T13:52:39;29.90;57.70
25550;DHT22;13444;50.562;7.262;2023-06-05T13:55:06;29.60;59.90
25550;DHT22;13444;50.562;7.262;2023-06-05T13:57:31;29.60;59.00
25550;DHT22;13444;50.562;7.262;2023-06-05T13:59:57;29.60;60.70
25550;DHT22;13444;50.562;7.262;2023-06-05T14:02:22;29.70;61.10
25550;DHT22;13444;50.562;7.262;2023-06-05T14:04:48;30.10;60.60
25550;DHT22;13444;50.562;7.262;2023-06-05T14:07:14;30.40;60.50
25550;DHT22;13444;50.562;7.262;2023-06-05T14:09:39;30.60;60.20
25550;DHT22;13444;50.562;7.262;2023-06-05T14:12:06;30.70;59.70
25550;DHT22;13444;50.562;7.262;2023-06-05T14:14:31;30.60;59.80
25550;DHT22;13444;50.562;7.262;2023-06-05T14:16:57;30.60;59.70
25550;DHT22;13444;50.562;7.262;2023-06-05T14:19:22;30.50;57.50
25550;DHT22;13444;50.562;7.262;2023-06-05T14:21:48;30.30;59.00
25550;DHT22;13444;50.562;7.262;2023-06-05T14:24:15;30.00;58.00
25550;DHT22;13444;50.562;7.262;2023-06-05T14:26:40;29.80;58.10
25550;DHT22;13444;50.562;7.262;2023-06-05T14:29:06;29.30;58.60
25550;DHT22;13444;50.562;7.262;2023-06-05T14:31:32;29.20;58.90
25550;DHT22;13444;50.562;7.262;2023-06-05T14:33:57;29.20;59.10
25550;DHT22;13444;50.562;7.262;2023-06-05T14:36:23;29.20;58.30
25550;DHT22;13444;50.562;7.262;2023-06-05T14:38:48;29.20;57.60
25550;DHT22;13444;50.562;7.262;2023-06-05T14:41:14;29.10;58.60
25550;DHT22;13444;50.562;7.262;2023-06-05T14:43:39;29.00;57.90
25550;DHT22;13444;50.562;7.262;2023-06-05T14:46:05;29.10;59.30
25550;DHT22;13444;50.562;7.262;2023-06-05T14:48:31;29.00;57.20
25550;DHT22;13444;50.562;7.262;2023-06-05T14:50:56;28.80;58.70
25550;DHT22;13444;50.562;7.262;2023-06-05T14:53:23;28.80;59.00
25550;DHT22;13444;50.562;7.262;2023-06-05T14:55:48;28.80;58.90
25550;DHT22;13444;50.562;7.262;2023-06-05T14:58:15;28.80;58.20
25550;DHT22;13444;50.562;7.262;2023-06-05T15:00:40;28.90;57.50
25550;DHT22;13444;50.562;7.262;2023-06-05T15:03:06;28.80;59.00
25550;DHT22;13444;50.562;7.262;2023-06-05T15:05:32;28.90;58.90
25550;DHT22;13444;50.562;7.262;2023-06-05T15:07:58;28.90;58.50
25550;DHT22;13444;50.562;7.262;2023-06-05T15:10:24;28.80;59.60
25550;DHT22;13444;50.562;7.262;2023-06-05T15:12:50;28.80;58.40
25550;DHT22;13444;50.562;7.262;2023-06-05T15:15:25;28.80;59.40
25550;DHT22;13444;50.562;7.262;2023-06-05T15:17:51;28.80;59.20
25550;DHT22;13444;50.562;7.262;2023-06-05T15:20:23;28.70;58.60
25550;DHT22;13444;50.562;7.262;2023-06-05T15:22:48;28.70;58.40
25550;DHT22;13444;50.562;7.262;2023-06-05T15:25:14;28.70;58.10
25550;DHT22;13444;50.562;7.262;2023-06-05T15:27:40;28.70;59.40
25550;DHT22;13444;50.562;7.262;2023-06-05T15:30:06;28.70;58.80
25550;DHT22;13444;50.562;7.262;2023-06-05T15:32:32;28.80;59.00
25550;DHT22;13444;50.562;7.262;2023-06-05T15:34:58;28.60;58.80
25550;DHT22;13444;50.562;7.262;2023-06-05T15:37:24;28.50;59.00
25550;DHT22;13444;50.562;7.262;2023-06-05T15:39:49;28.40;59.80
25550;DHT22;13444;50.562;7.262;2023-06-05T15:42:18;28.30;59.30
25550;DHT22;13444;50.562;7.262;2023-06-05T15:44:51;28.20;58.90
25550;DHT22;13444;50.562;7.262;2023-06-05T15:47:17;28.10;59.80
25550;DHT22;13444;50.562;7.262;2023-06-05T15:49:42;28.00;59.40
25550;DHT22;13444;50.562;7.262;2023-06-05T15:52:09;28.00;59.50
25550;DHT22;13444;50.562;7.262;2023-06-05T15:54:35;28.00;61.60
25550;DHT22;13444;50.562;7.262;2023-06-05T15:57:06;27.90;60.50
25550;DHT22;13444;50.562;7.262;2023-06-05T15:59:32;28.00;61.10
25550;DHT22;13444;50.562;7.262;2023-06-05T16:01:57;28.00;59.90